Terminal Aerodrome Forecast
Issued by NWS Mt. Holly, NJ

Home | Current Version | Previous Version | Text Only | Print | Product List | Glossary On
Versions: 1 2 3 4 5 6 7 8 9 10 11 12 13 14 15 16 17 18
218
FTUS41 KPHI 301136
TAFACY
TAF
KACY 301136Z 3012/3112 19007KT P6SM VCSH OVC006
      TEMPO 3012/3016 4SM -SHRA BR
     FM301600 17005KT 2SM SHRA BR OVC008
     FM302100 20005KT 5SM -SHRA BR OVC010
     FM310100 VRB03KT 3SM BR OVC007=

USA.gov is the U.S. government's official web portal to all federal, state and local government web resources and services.